KPUB/PUB METAR and TAF weather

Enter ICAO airport designator
Station Type Date Time Source
KPUB METAR 2021/04/14 19:53 UTC NOAA

KPUB 141953Z 06004KT 10SM CLR 12/M04 A3006 RMK AO2 SLP164 T01221039


Station Type Date Time Source
KPUB Decoded METAR 2021/04/14 19:53 UTC NOAA

PUEBLO MEMORIAL AIRPORT, CO, United States (KPUB) 38-17N 104-30W 1420M
Apr 14, 2021 - 03:53 PM EDT / 2021.04.14 1953 UTC
Wind: from the ENE (060 degrees) at 5 MPH (4 KT):0
Visibility: 10 mile(s):0
Sky conditions: clear
Temperature: 54.0 F (12.2 C)
Dew Point: 25.0 F (-3.9 C)
Relative Humidity: 32%
Pressure (altimeter): 30.06 in. Hg (1017 hPa)
ob: KPUB 141953Z 06004KT 10SM CLR 12/M04 A3006 RMK AO2 SLP164 T01221039
cycle: 20

Station Type Date Time Source
KPUB TAF 2021/04/14 18:30 UTC NOAA

TAF KPUB 141729Z 1418/1518 12010KT P6SM SCT040
FM150200 09009KT P6SM VCSH BKN030
FM150600 09007KT P6SM BKN015
FM150900 12009KT 5SM BR OVC008

Example: see airport list